Time;durP1;ratioP1;P1;durP2;ratioP2;P2;SDS_P1;SDS_P2;PMS_P1;PMS_P2;Temp;Humidity;BMP_temperature;BMP_pressure;BME280_temperature;BME280_humidity;BME280_pressure;Samples;Min_cycle;Max_cycle;Signal;HPM_P1;HPM_P2
2021/11/28 00:01:14;;;;;;;2.79;2.55;;;;;;;18.15;49.75;98367.61;;;;-47
2021/11/28 00:04:14;;;;;;;2.82;2.49;;;;;;;18.13;49.74;98362.36;;;;-52
2021/11/28 00:07:26;;;;;;;2.65;2.40;;;;;;;18.13;49.79;98363.35;;;;-57
2021/11/28 00:10:18;;;;;;;2.52;2.31;;;;;;;18.10;49.72;98358.72;;;;-52
2021/11/28 00:13:24;;;;;;;2.53;2.30;;;;;;;18.09;49.71;98353.14;;;;-57
2021/11/28 00:16:14;;;;;;;2.65;2.45;;;;;;;18.09;49.74;98353.05;;;;-51
2021/11/28 00:19:14;;;;;;;2.41;2.21;;;;;;;18.08;49.67;98352.19;;;;-52
2021/11/28 00:22:14;;;;;;;2.53;2.33;;;;;;;18.07;49.74;98353.11;;;;-51
2021/11/28 00:25:14;;;;;;;2.45;2.25;;;;;;;18.06;49.79;98354.03;;;;-52
2021/11/28 00:28:16;;;;;;;2.75;2.29;;;;;;;18.05;49.77;98356.88;;;;-47
2021/11/28 00:31:14;;;;;;;2.49;2.29;;;;;;;18.04;49.77;98355.61;;;;-57
2021/11/28 00:34:14;;;;;;;2.85;2.61;;;;;;;18.03;49.78;98353.61;;;;-57
2021/11/28 00:37:14;;;;;;;2.57;2.37;;;;;;;18.01;49.78;98350.89;;;;-52
2021/11/28 00:40:14;;;;;;;2.53;2.29;;;;;;;18.01;49.80;98358.75;;;;-52
2021/11/28 00:43:15;;;;;;;2.55;2.35;;;;;;;18.00;49.73;98357.89;;;;-51
2021/11/28 00:46:14;;;;;;;2.59;2.39;;;;;;;17.98;49.84;98362.36;;;;-51
2021/11/28 00:49:15;;;;;;;2.34;2.14;;;;;;;17.98;49.82;98354.86;;;;-47
2021/11/28 00:52:14;;;;;;;2.61;2.41;;;;;;;17.97;49.83;98355.83;;;;-52
2021/11/28 00:55:14;;;;;;;2.55;2.35;;;;;;;17.96;49.82;98360.48;;;;-52
2021/11/28 00:58:14;;;;;;;2.39;2.19;;;;;;;17.95;49.76;98354.98;;;;-49
2021/11/28 01:01:14;;;;;;;2.58;2.19;;;;;;;17.94;49.79;98357.05;;;;-57
2021/11/28 01:04:14;;;;;;;2.82;2.29;;;;;;;17.93;49.92;98357.70;;;;-57
2021/11/28 01:07:14;;;;;;;2.45;2.25;;;;;;;17.91;49.85;98360.27;;;;-57
2021/11/28 01:10:14;;;;;;;2.50;2.30;;;;;;;17.91;49.74;98363.43;;;;-57
2021/11/28 01:13:14;;;;;;;2.76;2.46;;;;;;;17.90;49.80;98364.73;;;;-57
2021/11/28 01:16:14;;;;;;;2.83;2.42;;;;;;;17.90;49.95;98370.74;;;;-57
2021/11/28 01:19:16;;;;;;;2.47;2.27;;;;;;;17.88;49.77;98369.70;;;;-57
2021/11/28 01:22:14;;;;;;;2.53;2.33;;;;;;;17.87;49.88;98370.23;;;;-57
2021/11/28 01:25:14;;;;;;;2.34;2.14;;;;;;;17.87;49.79;98370.72;;;;-57
2021/11/28 01:28:14;;;;;;;2.46;2.26;;;;;;;17.85;49.83;98373.44;;;;-57
2021/11/28 01:31:14;;;;;;;3.02;2.21;;;;;;;17.84;49.79;98378.07;;;;-57
2021/11/28 01:34:14;;;;;;;2.39;2.19;;;;;;;17.83;49.89;98383.59;;;;-57
2021/11/28 01:37:14;;;;;;;2.33;2.13;;;;;;;17.82;49.90;98389.16;;;;-57
2021/11/28 01:40:14;;;;;;;2.61;2.41;;;;;;;17.82;49.82;98390.23;;;;-57
2021/11/28 01:43:15;;;;;;;2.59;2.29;;;;;;;17.81;49.84;98392.37;;;;-57
2021/11/28 01:46:14;;;;;;;2.64;2.40;;;;;;;17.80;49.79;98401.77;;;;-57
2021/11/28 01:49:14;;;;;;;2.27;2.07;;;;;;;17.79;49.89;98396.70;;;;-57
2021/11/28 01:52:14;;;;;;;3.02;2.19;;;;;;;17.78;49.83;98391.75;;;;-57
2021/11/28 01:55:14;;;;;;;2.99;2.43;;;;;;;17.77;49.85;98391.13;;;;-57
2021/11/28 01:58:14;;;;;;;2.71;2.48;;;;;;;17.76;49.79;98393.16;;;;-57
2021/11/28 02:01:14;;;;;;;2.27;2.07;;;;;;;17.76;49.97;98402.16;;;;-56
2021/11/28 02:04:15;;;;;;;2.49;2.29;;;;;;;17.74;49.72;98408.44;;;;-57
2021/11/28 02:07:14;;;;;;;2.60;2.40;;;;;;;17.75;49.84;98409.81;;;;-57
2021/11/28 02:10:14;;;;;;;2.52;2.31;;;;;;;17.73;49.83;98404.76;;;;-49
2021/11/28 02:13:14;;;;;;;3.09;2.20;;;;;;;17.72;49.89;98398.19;;;;-49
2021/11/28 02:16:14;;;;;;;2.55;2.35;;;;;;;17.71;49.94;98399.52;;;;-50
2021/11/28 02:19:14;;;;;;;2.83;2.30;;;;;;;17.70;49.82;98394.92;;;;-51
2021/11/28 02:22:14;;;;;;;2.33;2.13;;;;;;;17.69;49.89;98395.67;;;;-50
2021/11/28 02:25:14;;;;;;;2.40;2.20;;;;;;;17.68;49.97;98395.52;;;;-47
2021/11/28 02:28:14;;;;;;;2.71;2.31;;;;;;;17.68;49.96;98402.16;;;;-47
2021/11/28 02:31:14;;;;;;;2.36;2.16;;;;;;;17.66;49.84;98391.83;;;;-47
2021/11/28 02:34:14;;;;;;;2.61;2.30;;;;;;;17.65;49.88;98387.64;;;;-52
2021/11/28 02:37:14;;;;;;;2.39;2.17;;;;;;;17.64;49.85;98389.70;;;;-50
2021/11/28 02:40:14;;;;;;;2.77;2.53;;;;;;;17.64;49.97;98394.08;;;;-47
2021/11/28 02:43:14;;;;;;;2.50;2.30;;;;;;;17.63;49.94;98395.80;;;;-52
2021/11/28 02:46:14;;;;;;;2.77;2.27;;;;;;;17.62;49.83;98398.31;;;;-47
2021/11/28 02:49:15;;;;;;;2.48;2.26;;;;;;;17.62;49.85;98403.73;;;;-57
2021/11/28 02:52:14;;;;;;;2.51;2.31;;;;;;;17.60;49.95;98399.48;;;;-51
2021/11/28 02:55:14;;;;;;;2.30;2.10;;;;;;;17.61;49.86;98397.52;;;;-51
2021/11/28 02:58:14;;;;;;;2.40;2.20;;;;;;;17.59;49.96;98396.50;;;;-52
2021/11/28 03:01:14;;;;;;;2.29;2.09;;;;;;;17.58;49.84;98395.49;;;;-52
2021/11/28 03:04:14;;;;;;;2.48;2.28;;;;;;;17.58;49.83;98406.81;;;;-47
2021/11/28 03:07:14;;;;;;;2.40;2.20;;;;;;;17.57;50.01;98403.18;;;;-47
2021/11/28 03:10:14;;;;;;;2.29;2.09;;;;;;;17.57;49.84;98406.74;;;;-47
2021/11/28 03:13:14;;;;;;;2.26;2.06;;;;;;;17.56;50.05;98411.95;;;;-47
2021/11/28 03:16:14;;;;;;;2.52;2.32;;;;;;;17.56;49.97;98415.77;;;;-47
2021/11/28 03:19:14;;;;;;;2.21;2.01;;;;;;;17.55;49.92;98417.88;;;;-51
2021/11/28 03:22:14;;;;;;;2.36;2.16;;;;;;;17.54;50.00;98418.39;;;;-47
2021/11/28 03:25:14;;;;;;;2.42;2.22;;;;;;;17.54;50.04;98421.30;;;;-49
2021/11/28 03:28:14;;;;;;;2.21;2.00;;;;;;;17.53;50.09;98416.30;;;;-46
2021/11/28 03:31:14;;;;;;;2.53;2.29;;;;;;;17.52;49.94;98419.07;;;;-57
2021/11/28 03:34:14;;;;;;;2.30;2.10;;;;;;;17.51;50.06;98412.84;;;;-57
2021/11/28 03:37:14;;;;;;;2.20;2.00;;;;;;;17.52;50.06;98408.70;;;;-49
2021/11/28 03:40:14;;;;;;;2.30;2.10;;;;;;;17.51;49.98;98402.48;;;;-50
2021/11/28 03:43:14;;;;;;;2.27;2.07;;;;;;;17.51;50.05;98399.33;;;;-50
2021/11/28 03:46:14;;;;;;;2.29;2.03;;;;;;;17.50;49.98;98384.55;;;;-50
2021/11/28 03:49:14;;;;;;;2.22;2.02;;;;;;;17.49;50.03;98378.89;;;;-49
2021/11/28 03:52:14;;;;;;;2.25;2.05;;;;;;;17.48;49.96;98382.88;;;;-57
2021/11/28 03:55:15;;;;;;;2.38;2.18;;;;;;;17.48;50.01;98377.30;;;;-57
2021/11/28 03:58:14;;;;;;;2.38;2.15;;;;;;;17.47;49.99;98372.62;;;;-57
2021/11/28 04:01:14;;;;;;;2.13;1.93;;;;;;;17.46;50.00;98364.84;;;;-50
2021/11/28 04:04:14;;;;;;;2.29;2.09;;;;;;;17.46;50.06;98369.88;;;;-47
2021/11/28 04:07:14;;;;;;;2.20;2.00;;;;;;;17.46;49.97;98365.67;;;;-57
2021/11/28 04:10:14;;;;;;;2.17;1.97;;;;;;;17.45;50.01;98364.30;;;;-49
2021/11/28 04:13:14;;;;;;;2.21;2.00;;;;;;;17.46;50.01;98367.45;;;;-49
2021/11/28 04:16:14;;;;;;;2.61;2.25;;;;;;;17.44;49.93;98368.22;;;;-50
2021/11/28 04:19:14;;;;;;;2.30;2.10;;;;;;;17.44;50.07;98371.22;;;;-57
2021/11/28 04:22:14;;;;;;;2.25;2.05;;;;;;;17.44;50.03;98371.13;;;;-57
2021/11/28 04:25:14;;;;;;;2.20;2.00;;;;;;;17.42;49.95;98370.52;;;;-47
2021/11/28 04:28:14;;;;;;;2.23;2.03;;;;;;;17.42;49.90;98377.95;;;;-49
2021/11/28 04:31:14;;;;;;;2.74;2.12;;;;;;;17.43;49.98;98382.07;;;;-50
2021/11/28 04:34:14;;;;;;;2.19;1.99;;;;;;;17.39;49.83;98377.86;;;;-47
2021/11/28 04:37:14;;;;;;;2.43;2.17;;;;;;;17.41;49.99;98379.11;;;;-47
2021/11/28 04:40:14;;;;;;;2.12;1.95;;;;;;;17.41;49.95;98386.41;;;;-47
2021/11/28 04:43:14;;;;;;;2.29;2.09;;;;;;;17.41;50.00;98387.94;;;;-52
2021/11/28 04:46:14;;;;;;;2.31;2.03;;;;;;;17.39;49.97;98382.00;;;;-57
2021/11/28 04:49:14;;;;;;;2.19;1.99;;;;;;;17.40;49.95;98382.61;;;;-56
2021/11/28 04:52:14;;;;;;;2.20;2.00;;;;;;;17.38;49.88;98377.29;;;;-51
2021/11/28 04:55:14;;;;;;;1.99;1.88;;;;;;;17.38;49.86;98381.67;;;;-51
2021/11/28 04:58:14;;;;;;;2.19;1.95;;;;;;;17.38;50.04;98380.04;;;;-52
2021/11/28 05:01:14;;;;;;;2.19;1.99;;;;;;;17.38;49.90;98381.60;;;;-51
2021/11/28 05:04:14;;;;;;;2.20;2.00;;;;;;;17.36;49.96;98378.70;;;;-52
2021/11/28 05:07:14;;;;;;;2.14;1.94;;;;;;;17.37;49.92;98380.31;;;;-50
2021/11/28 05:10:14;;;;;;;3.02;2.06;;;;;;;17.37;49.92;98380.09;;;;-49
2021/11/28 05:13:14;;;;;;;1.95;1.85;;;;;;;17.36;49.92;98382.12;;;;-51
2021/11/28 05:16:14;;;;;;;2.37;2.17;;;;;;;17.35;49.91;98377.54;;;;-52
2021/11/28 05:19:14;;;;;;;2.12;1.92;;;;;;;17.35;50.00;98376.79;;;;-52
2021/11/28 05:22:14;;;;;;;2.24;2.04;;;;;;;17.35;49.87;98375.33;;;;-57
2021/11/28 05:25:14;;;;;;;2.18;1.99;;;;;;;17.35;49.87;98376.30;;;;-50
2021/11/28 05:28:14;;;;;;;2.19;1.99;;;;;;;17.34;49.93;98378.35;;;;-50
2021/11/28 05:31:17;;;;;;;2.23;2.03;;;;;;;17.33;49.97;98381.77;;;;-47
2021/11/28 05:34:14;;;;;;;2.24;2.04;;;;;;;17.33;49.92;98380.22;;;;-52
2021/11/28 05:37:15;;;;;;;2.17;1.97;;;;;;;17.32;50.01;98383.16;;;;-47
2021/11/28 05:40:14;;;;;;;2.35;2.15;;;;;;;17.30;50.03;98387.25;;;;-50
2021/11/28 05:43:14;;;;;;;2.15;1.95;;;;;;;17.29;49.98;98387.59;;;;-50
2021/11/28 05:46:14;;;;;;;2.45;2.14;;;;;;;17.28;49.85;98391.31;;;;-50
2021/11/28 05:49:14;;;;;;;2.13;1.93;;;;;;;17.29;49.87;98389.05;;;;-50
2021/11/28 05:52:14;;;;;;;2.13;1.93;;;;;;;17.30;49.94;98387.33;;;;-49
2021/11/28 05:55:14;;;;;;;2.10;1.90;;;;;;;17.31;50.01;98390.08;;;;-56
2021/11/28 05:58:14;;;;;;;2.10;1.90;;;;;;;17.33;49.87;98388.98;;;;-57
2021/11/28 06:01:14;;;;;;;2.23;1.87;;;;;;;17.35;49.92;98393.48;;;;-57
2021/11/28 06:04:14;;;;;;;2.17;1.95;;;;;;;17.36;50.02;98401.29;;;;-49
2021/11/28 06:07:14;;;;;;;2.12;1.92;;;;;;;17.39;50.14;98399.80;;;;-49
2021/11/28 06:10:14;;;;;;;2.03;1.83;;;;;;;17.42;50.22;98403.64;;;;-57
2021/11/28 06:13:14;;;;;;;2.13;1.93;;;;;;;17.43;50.34;98389.52;;;;-57
2021/11/28 06:16:14;;;;;;;2.22;2.02;;;;;;;17.44;50.32;98390.65;;;;-56
2021/11/28 06:19:14;;;;;;;2.42;1.95;;;;;;;17.45;50.35;98385.36;;;;-47
2021/11/28 06:22:14;;;;;;;2.23;2.00;;;;;;;17.46;50.34;98383.55;;;;-51
2021/11/28 06:25:14;;;;;;;2.37;2.17;;;;;;;17.48;50.37;98382.06;;;;-51
2021/11/28 06:28:14;;;;;;;2.12;1.94;;;;;;;17.49;50.39;98379.92;;;;-51
2021/11/28 06:31:14;;;;;;;2.51;2.31;;;;;;;17.51;50.37;98381.92;;;;-52
2021/11/28 06:34:14;;;;;;;2.48;2.28;;;;;;;17.52;50.37;98384.11;;;;-51
2021/11/28 06:37:14;;;;;;;2.39;2.19;;;;;;;17.53;50.40;98396.62;;;;-49
2021/11/28 06:40:14;;;;;;;2.40;2.20;;;;;;;17.53;50.29;98403.91;;;;-51
2021/11/28 06:43:14;;;;;;;2.32;2.12;;;;;;;17.54;50.27;98401.31;;;;-49
2021/11/28 06:46:14;;;;;;;2.17;2.01;;;;;;;17.55;50.19;98395.70;;;;-57
2021/11/28 06:49:14;;;;;;;2.59;2.39;;;;;;;17.55;50.31;98398.13;;;;-50
2021/11/28 06:52:14;;;;;;;2.37;2.17;;;;;;;17.55;50.35;98400.05;;;;-50
2021/11/28 06:55:14;;;;;;;3.19;2.97;;;;;;;17.55;50.27;98404.09;;;;-49
2021/11/28 06:58:15;;;;;;;2.40;2.20;;;;;;;17.56;50.30;98408.72;;;;-50
2021/11/28 07:01:14;;;;;;;6.83;4.11;;;;;;;17.22;46.05;98406.66;;;;-52
2021/11/28 07:04:14;;;;;;;9.19;8.24;;;;;;;17.02;44.74;98411.86;;;;-51
2021/11/28 07:07:14;;;;;;;19.80;18.11;;;;;;;16.95;44.75;98408.56;;;;-52
2021/11/28 07:10:14;;;;;;;16.51;15.13;;;;;;;17.06;46.24;98406.44;;;;-49
2021/11/28 07:13:14;;;;;;;14.33;12.73;;;;;;;17.14;46.83;98412.38;;;;-50
2021/11/28 07:16:14;;;;;;;11.77;10.73;;;;;;;17.21;47.25;98414.45;;;;-52
2021/11/28 07:19:14;;;;;;;10.81;9.97;;;;;;;17.25;47.17;98415.50;;;;-51
2021/11/28 07:22:14;;;;;;;9.23;8.48;;;;;;;17.29;47.58;98415.20;;;;-51
2021/11/28 07:25:14;;;;;;;9.47;8.48;;;;;;;17.32;47.82;98415.47;;;;-51
2021/11/28 07:28:14;;;;;;;10.64;9.79;;;;;;;17.36;48.18;98417.59;;;;-51
2021/11/28 07:31:14;;;;;;;9.27;8.39;;;;;;;17.39;48.26;98423.13;;;;-49
2021/11/28 07:34:14;;;;;;;5.28;4.55;;;;;;;17.43;48.40;98425.79;;;;-51
2021/11/28 07:37:14;;;;;;;3.91;3.45;;;;;;;17.46;48.52;98428.48;;;;-51
2021/11/28 07:40:14;;;;;;;4.91;4.03;;;;;;;17.49;48.65;98434.98;;;;-49
2021/11/28 07:43:15;;;;;;;6.47;3.76;;;;;;;17.53;48.63;98438.80;;;;-57
2021/11/28 07:46:14;;;;;;;3.68;3.32;;;;;;;17.55;48.69;98441.10;;;;-48
2021/11/28 07:49:14;;;;;;;3.55;3.16;;;;;;;17.59;48.78;98446.87;;;;-48
2021/11/28 07:52:14;;;;;;;3.83;3.04;;;;;;;17.62;48.67;98448.60;;;;-51
2021/11/28 07:55:14;;;;;;;3.43;2.96;;;;;;;17.64;48.81;98447.03;;;;-51
2021/11/28 07:58:14;;;;;;;3.27;2.80;;;;;;;17.66;48.89;98448.13;;;;-51
2021/11/28 08:01:14;;;;;;;3.13;2.79;;;;;;;17.70;48.81;98454.13;;;;-48
2021/11/28 08:04:14;;;;;;;4.19;3.04;;;;;;;17.72;48.88;98458.95;;;;-57
2021/11/28 08:07:14;;;;;;;3.06;2.76;;;;;;;17.73;48.93;98458.12;;;;-51
2021/11/28 08:10:13;;;;;;;2.87;2.45;;;;;;;17.74;48.91;98460.20;;;;-57
2021/11/28 08:13:14;;;;;;;3.25;2.61;;;;;;;17.75;49.03;98460.02;;;;-48
2021/11/28 08:16:14;;;;;;;3.31;2.57;;;;;;;17.77;48.98;98462.03;;;;-51
2021/11/28 08:19:14;;;;;;;3.26;2.65;;;;;;;17.77;49.02;98468.75;;;;-48
2021/11/28 08:22:14;;;;;;;3.04;2.74;;;;;;;17.77;49.09;98471.65;;;;-51
2021/11/28 08:25:14;;;;;;;3.31;2.65;;;;;;;17.78;49.06;98471.14;;;;-52
2021/11/28 08:28:14;;;;;;;2.93;2.63;;;;;;;17.78;49.06;98468.78;;;;-57
2021/11/28 08:31:14;;;;;;;3.29;2.79;;;;;;;17.78;49.14;98466.84;;;;-52
2021/11/28 08:34:14;;;;;;;2.73;2.44;;;;;;;17.79;49.13;98473.41;;;;-51
2021/11/28 08:37:14;;;;;;;2.94;2.49;;;;;;;17.79;49.22;98477.63;;;;-51
2021/11/28 08:40:14;;;;;;;2.79;2.48;;;;;;;17.79;49.22;98478.44;;;;-51
2021/11/28 08:43:14;;;;;;;2.79;2.30;;;;;;;17.78;49.21;98483.95;;;;-51
2021/11/28 08:46:15;;;;;;;2.75;2.43;;;;;;;17.79;49.28;98492.61;;;;-48
2021/11/28 08:49:14;;;;;;;2.59;2.38;;;;;;;17.78;49.24;98487.69;;;;-51
2021/11/28 08:52:14;;;;;;;2.63;2.43;;;;;;;17.78;49.22;98488.88;;;;-51
2021/11/28 08:55:14;;;;;;;2.73;2.53;;;;;;;17.78;49.33;98488.80;;;;-59
2021/11/28 08:58:14;;;;;;;3.07;2.77;;;;;;;17.78;49.08;98488.81;;;;-57
2021/11/28 09:01:14;;;;;;;4.19;3.83;;;;;;;17.77;49.13;98490.37;;;;-49
2021/11/28 09:04:14;;;;;;;2.72;2.47;;;;;;;17.77;49.31;98496.38;;;;-49
2021/11/28 09:07:14;;;;;;;3.29;2.50;;;;;;;17.76;49.30;98502.14;;;;-51
2021/11/28 09:10:14;;;;;;;2.91;2.52;;;;;;;17.77;49.12;98504.39;;;;-51
2021/11/28 09:13:14;;;;;;;3.42;2.27;;;;;;;17.76;49.34;98511.59;;;;-51
2021/11/28 09:16:14;;;;;;;2.52;2.32;;;;;;;17.76;49.29;98508.38;;;;-48
2021/11/28 09:19:18;;;;;;;2.83;2.60;;;;;;;17.75;49.36;98509.69;;;;-49
2021/11/28 09:22:22;;;;;;;3.30;2.56;;;;;;;17.75;49.33;98508.56;;;;-57
2021/11/28 09:25:14;;;;;;;2.69;2.29;;;;;;;17.75;49.16;98508.56;;;;-48
2021/11/28 09:28:14;;;;;;;2.37;2.17;;;;;;;17.75;49.29;98516.83;;;;-57
2021/11/28 09:31:14;;;;;;;2.80;2.40;;;;;;;17.74;49.14;98510.17;;;;-51
2021/11/28 09:34:14;;;;;;;2.89;2.42;;;;;;;17.74;49.37;98514.73;;;;-51
2021/11/28 09:37:13;;;;;;;2.47;2.27;;;;;;;17.73;49.36;98513.84;;;;-49
2021/11/28 09:40:14;;;;;;;2.65;2.41;;;;;;;17.73;49.32;98511.75;;;;-51
2021/11/28 09:43:14;;;;;;;2.49;2.22;;;;;;;17.74;49.26;98517.23;;;;-58
2021/11/28 09:46:13;;;;;;;2.51;2.31;;;;;;;17.73;49.33;98515.79;;;;-57
2021/11/28 09:49:14;;;;;;;2.30;2.10;;;;;;;17.73;49.38;98520.73;;;;-51
2021/11/28 09:52:15;;;;;;;3.21;2.50;;;;;;;17.73;49.37;98517.35;;;;-52
2021/11/28 09:55:14;;;;;;;2.68;2.41;;;;;;;17.72;49.45;98517.60;;;;-51
2021/11/28 09:58:14;;;;;;;2.49;2.29;;;;;;;17.73;49.37;98511.36;;;;-57
2021/11/28 10:01:13;;;;;;;2.58;2.31;;;;;;;17.73;49.32;98510.62;;;;-51
2021/11/28 10:04:14;;;;;;;2.43;2.23;;;;;;;17.74;49.53;98504.43;;;;-57
2021/11/28 10:07:14;;;;;;;3.13;2.48;;;;;;;17.73;49.54;98495.47;;;;-49
2021/11/28 10:10:14;;;;;;;2.61;2.39;;;;;;;17.74;49.48;98494.47;;;;-57
2021/11/28 10:13:14;;;;;;;2.62;2.30;;;;;;;17.74;49.23;98492.60;;;;-57
2021/11/28 10:16:14;;;;;;;2.50;2.30;;;;;;;17.74;49.45;98497.05;;;;-57
2021/11/28 10:19:14;;;;;;;2.45;2.21;;;;;;;17.75;49.40;98494.94;;;;-48
2021/11/28 10:22:14;;;;;;;2.50;2.30;;;;;;;17.75;49.39;98489.99;;;;-48
2021/11/28 10:25:17;;;;;;;7.22;6.61;;;;;;;17.76;49.42;98490.71;;;;-51
2021/11/28 10:28:15;;;;;;;2.39;2.19;;;;;;;17.76;49.48;98487.63;;;;-51
2021/11/28 10:31:14;;;;;;;2.21;2.01;;;;;;;17.76;49.50;98486.17;;;;-51
2021/11/28 10:34:13;;;;;;;2.53;2.29;;;;;;;17.76;49.51;98486.32;;;;-48
2021/11/28 10:37:14;;;;;;;2.30;2.05;;;;;;;17.77;49.50;98485.02;;;;-51
2021/11/28 10:40:13;;;;;;;2.41;2.20;;;;;;;17.77;49.42;98481.88;;;;-51
2021/11/28 10:43:13;;;;;;;2.33;2.13;;;;;;;17.77;49.49;98481.69;;;;-51
2021/11/28 10:46:14;;;;;;;2.51;2.21;;;;;;;17.77;49.62;98480.72;;;;-51
2021/11/28 10:49:14;;;;;;;2.45;2.25;;;;;;;17.78;49.50;98475.52;;;;-51
2021/11/28 10:52:14;;;;;;;2.39;2.19;;;;;;;17.78;49.45;98476.02;;;;-52
2021/11/28 10:55:14;;;;;;;2.71;2.27;;;;;;;17.79;49.34;98472.02;;;;-57
2021/11/28 10:58:14;;;;;;;2.47;2.27;;;;;;;17.79;49.41;98470.17;;;;-52
2021/11/28 11:01:15;;;;;;;2.47;2.15;;;;;;;17.79;49.36;98465.80;;;;-51
2021/11/28 11:04:13;;;;;;;2.28;1.97;;;;;;;17.80;49.48;98466.91;;;;-51
2021/11/28 11:07:14;;;;;;;2.71;2.19;;;;;;;17.79;49.57;98462.63;;;;-51
2021/11/28 11:10:14;;;;;;;2.52;2.23;;;;;;;17.79;49.55;98464.89;;;;-51
2021/11/28 11:13:14;;;;;;;2.47;2.27;;;;;;;17.80;49.51;98468.59;;;;-51
2021/11/28 11:16:14;;;;;;;2.39;2.19;;;;;;;17.80;49.36;98467.87;;;;-51
2021/11/28 11:19:13;;;;;;;2.88;2.31;;;;;;;17.79;49.60;98461.81;;;;-51
2021/11/28 11:22:15;;;;;;;2.30;2.10;;;;;;;17.80;49.55;98464.16;;;;-51
2021/11/28 11:25:16;;;;;;;2.36;2.16;;;;;;;17.80;49.47;98464.20;;;;-48
2021/11/28 11:28:13;;;;;;;2.28;2.08;;;;;;;17.80;49.57;98467.63;;;;-48
2021/11/28 11:31:14;;;;;;;2.13;1.93;;;;;;;17.79;49.42;98472.67;;;;-51
2021/11/28 11:34:14;;;;;;;2.33;2.13;;;;;;;17.79;49.66;98471.05;;;;-52
2021/11/28 11:37:16;;;;;;;2.70;2.37;;;;;;;17.79;49.53;98472.76;;;;-51
2021/11/28 11:40:14;;;;;;;2.30;2.10;;;;;;;17.80;49.63;98472.91;;;;-51
2021/11/28 11:43:16;;;;;;;2.15;1.96;;;;;;;17.79;49.53;98474.45;;;;-51
2021/11/28 11:46:14;;;;;;;2.18;1.98;;;;;;;17.80;49.51;98475.82;;;;-48
2021/11/28 11:49:14;;;;;;;2.77;2.37;;;;;;;17.79;49.53;98475.03;;;;-49
2021/11/28 11:52:13;;;;;;;2.25;2.02;;;;;;;17.78;49.56;98469.05;;;;-49
2021/11/28 11:55:14;;;;;;;2.10;1.90;;;;;;;17.79;49.41;98467.18;;;;-51
2021/11/28 11:58:13;;;;;;;2.05;1.85;;;;;;;17.77;49.53;98469.37;;;;-51
2021/11/28 12:01:14;;;;;;;2.75;2.07;;;;;;;17.79;49.75;98466.60;;;;-52
2021/11/28 12:04:14;;;;;;;2.24;2.04;;;;;;;17.80;49.82;98462.93;;;;-54
2021/11/28 12:07:14;;;;;;;4.41;2.27;;;;;;;17.82;49.70;98458.28;;;;-51
2021/11/28 12:10:14;;;;;;;2.76;2.29;;;;;;;17.83;49.63;98455.28;;;;-50
2021/11/28 12:13:14;;;;;;;3.15;2.20;;;;;;;17.87;49.39;98453.53;;;;-56
2021/11/28 12:18:14;;;;;;;5.46;2.39;;;;;;;17.97;49.63;98447.40;;;;-52
2021/11/28 12:21:13;;;;;;;2.90;2.01;;;;;;;18.03;49.83;98443.95;;;;-54
2021/11/28 12:24:14;;;;;;;3.41;2.11;;;;;;;18.10;49.89;98444.73;;;;-65
2021/11/28 12:27:14;;;;;;;2.97;2.28;;;;;;;18.15;49.98;98445.41;;;;-64
2021/11/28 12:30:13;;;;;;;2.21;2.01;;;;;;;18.20;50.10;98443.69;;;;-53
2021/11/28 12:33:14;;;;;;;2.35;2.06;;;;;;;18.27;50.07;98441.19;;;;-63
2021/11/28 12:36:14;;;;;;;2.62;2.09;;;;;;;18.31;50.07;98446.14;;;;-55
2021/11/28 12:39:13;;;;;;;3.34;2.04;;;;;;;18.36;50.14;98447.02;;;;-53
2021/11/28 12:43:14;;;;;;;3.01;2.18;;;;;;;18.42;50.22;98447.45;;;;-50
2021/11/28 12:46:13;;;;;;;2.70;1.92;;;;;;;18.47;50.25;98453.90;;;;-50
2021/11/28 12:49:14;;;;;;;2.77;1.82;;;;;;;18.50;50.21;98451.88;;;;-54
2021/11/28 12:52:13;;;;;;;2.58;2.10;;;;;;;18.57;50.44;98454.33;;;;-52
2021/11/28 12:55:15;;;;;;;2.79;2.01;;;;;;;18.60;50.34;98454.36;;;;-52
2021/11/28 12:58:14;;;;;;;2.89;2.06;;;;;;;18.64;50.34;98454.53;;;;-60
2021/11/28 13:01:13;;;;;;;2.41;1.90;;;;;;;18.67;50.17;98455.31;;;;-57
2021/11/28 13:04:14;;;;;;;4.60;2.01;;;;;;;18.68;49.87;98451.59;;;;-58
2021/11/28 13:07:13;;;;;;;2.25;1.93;;;;;;;18.68;49.76;98451.52;;;;-58
2021/11/28 13:10:13;;;;;;;3.09;1.98;;;;;;;18.69;49.75;98450.72;;;;-47
2021/11/28 13:13:14;;;;;;;2.09;1.73;;;;;;;18.71;49.72;98450.77;;;;-47
2021/11/28 13:16:13;;;;;;;3.38;1.98;;;;;;;18.73;49.66;98452.43;;;;-47
2021/11/28 13:19:14;;;;;;;2.79;1.96;;;;;;;18.75;49.63;98455.39;;;;-58
2021/11/28 13:22:14;;;;;;;2.13;1.93;;;;;;;18.76;49.64;98460.89;;;;-56
2021/11/28 13:25:13;;;;;;;2.17;1.90;;;;;;;18.78;49.54;98466.55;;;;-58
2021/11/28 13:28:14;;;;;;;2.41;1.94;;;;;;;18.79;49.51;98465.62;;;;-58
2021/11/28 13:31:17;;;;;;;2.99;1.85;;;;;;;18.81;49.63;98464.53;;;;-52
2021/11/28 13:34:13;;;;;;;2.55;1.79;;;;;;;18.82;49.49;98467.20;;;;-47
2021/11/28 13:37:14;;;;;;;2.11;1.87;;;;;;;18.84;49.48;98465.12;;;;-47
2021/11/28 13:40:13;;;;;;;2.26;1.76;;;;;;;18.85;49.46;98470.13;;;;-47
2021/11/28 13:43:14;;;;;;;2.66;1.92;;;;;;;18.90;49.89;98467.32;;;;-57
2021/11/28 13:46:13;;;;;;;5.21;2.60;;;;;;;18.94;49.90;98466.51;;;;-52
2021/11/28 13:49:13;;;;;;;2.15;1.72;;;;;;;18.97;50.03;98467.75;;;;-54
2021/11/28 13:52:14;;;;;;;2.36;1.85;;;;;;;19.01;50.11;98467.33;;;;-59
2021/11/28 13:55:13;;;;;;;2.63;1.70;;;;;;;19.04;50.11;98462.21;;;;-57
2021/11/28 13:58:13;;;;;;;2.04;1.71;;;;;;;19.08;50.16;98463.50;;;;-56
2021/11/28 14:01:15;;;;;;;3.55;1.82;;;;;;;19.13;50.13;98463.22;;;;-59
2021/11/28 14:04:13;;;;;;;2.38;1.76;;;;;;;19.13;49.67;98460.38;;;;-58
2021/11/28 14:07:13;;;;;;;2.29;1.73;;;;;;;19.17;49.92;98464.40;;;;-50
2021/11/28 14:10:13;;;;;;;4.43;1.82;;;;;;;19.19;49.83;98460.29;;;;-58
2021/11/28 14:13:13;;;;;;;3.33;1.85;;;;;;;19.23;49.96;98456.71;;;;-57
2021/11/28 14:16:14;;;;;;;2.27;1.65;;;;;;;19.25;50.01;98457.48;;;;-51
2021/11/28 14:19:13;;;;;;;3.38;1.81;;;;;;;19.28;50.06;98462.28;;;;-59
2021/11/28 14:22:13;;;;;;;1.67;1.55;;;;;;;19.30;49.98;98467.91;;;;-51
2021/11/28 14:25:14;;;;;;;3.03;1.77;;;;;;;19.32;49.71;98473.64;;;;-53
2021/11/28 14:28:13;;;;;;;1.96;1.77;;;;;;;19.34;49.93;98477.98;;;;-52
2021/11/28 14:31:16;;;;;;;1.88;1.71;;;;;;;19.36;49.91;98477.77;;;;-55
2021/11/28 14:34:13;;;;;;;2.23;1.91;;;;;;;19.38;49.63;98483.39;;;;-57
2021/11/28 14:37:13;;;;;;;1.95;1.75;;;;;;;19.40;49.77;98484.87;;;;-58
2021/11/28 14:40:13;;;;;;;1.91;1.70;;;;;;;19.42;49.61;98479.80;;;;-60
2021/11/28 14:43:13;;;;;;;2.07;1.77;;;;;;;19.44;49.69;98480.48;;;;-59
2021/11/28 14:46:13;;;;;;;2.04;1.82;;;;;;;19.46;49.76;98479.03;;;;-61
2021/11/28 14:49:13;;;;;;;2.91;1.80;;;;;;;19.47;49.64;98475.52;;;;-53
2021/11/28 14:52:13;;;;;;;2.86;1.95;;;;;;;19.49;49.60;98477.69;;;;-55
2021/11/28 14:55:13;;;;;;;2.27;1.79;;;;;;;19.50;49.32;98482.34;;;;-53
2021/11/28 14:58:13;;;;;;;1.78;1.61;;;;;;;19.53;49.56;98487.73;;;;-55
2021/11/28 15:01:14;;;;;;;2.73;1.65;;;;;;;19.57;49.69;98490.70;;;;-57
2021/11/28 15:04:13;;;;;;;4.27;1.63;;;;;;;19.56;49.34;98493.34;;;;-58
2021/11/28 15:07:14;;;;;;;2.96;1.79;;;;;;;19.56;49.43;98493.88;;;;-56
2021/11/28 15:10:13;;;;;;;2.75;1.72;;;;;;;19.58;49.64;98498.05;;;;-50
2021/11/28 15:13:15;;;;;;;3.51;1.64;;;;;;;19.61;49.55;98498.56;;;;-49
2021/11/28 15:16:13;;;;;;;2.31;1.75;;;;;;;19.65;49.47;98502.78;;;;-53
2021/11/28 15:19:13;;;;;;;2.80;1.74;;;;;;;19.66;49.54;98500.14;;;;-53
2021/11/28 15:22:14;;;;;;;2.03;1.78;;;;;;;19.67;49.49;98503.12;;;;-51
2021/11/28 15:25:14;;;;;;;1.79;1.64;;;;;;;19.71;49.50;98508.01;;;;-49
2021/11/28 15:28:13;;;;;;;3.01;1.68;;;;;;;19.72;49.43;98508.46;;;;-51
2021/11/28 15:31:13;;;;;;;2.47;1.81;;;;;;;19.75;49.40;98509.02;;;;-47
2021/11/28 15:34:13;;;;;;;1.91;1.75;;;;;;;19.76;49.39;98505.69;;;;-46
2021/11/28 15:37:13;;;;;;;2.11;1.77;;;;;;;19.79;49.37;98502.20;;;;-50
2021/11/28 15:40:13;;;;;;;1.96;1.64;;;;;;;19.81;49.58;98506.38;;;;-51
2021/11/28 15:43:13;;;;;;;2.17;1.88;;;;;;;19.84;49.41;98505.00;;;;-50
2021/11/28 15:46:13;;;;;;;3.51;1.89;;;;;;;19.86;49.48;98509.08;;;;-51
2021/11/28 15:49:14;;;;;;;2.09;1.70;;;;;;;19.88;49.41;98515.95;;;;-49
2021/11/28 15:52:13;;;;;;;2.00;1.80;;;;;;;19.91;49.40;98517.58;;;;-54
2021/11/28 15:55:14;;;;;;;3.07;1.85;;;;;;;19.88;49.00;98516.09;;;;-60
2021/11/28 15:58:14;;;;;;;2.09;1.63;;;;;;;19.88;49.13;98519.34;;;;-46
2021/11/28 16:01:14;;;;;;;2.92;1.61;;;;;;;19.90;49.08;98526.38;;;;-47
2021/11/28 16:04:13;;;;;;;3.25;1.90;;;;;;;19.92;49.32;98528.91;;;;-51
2021/11/28 16:07:13;;;;;;;1.81;1.66;;;;;;;19.94;49.46;98528.38;;;;-50
2021/11/28 16:10:13;;;;;;;2.83;1.58;;;;;;;19.95;49.38;98528.34;;;;-58
2021/11/28 16:13:13;;;;;;;2.91;1.49;;;;;;;19.97;49.38;98529.12;;;;-56
2021/11/28 16:16:13;;;;;;;1.96;1.61;;;;;;;19.99;49.44;98528.31;;;;-53
2021/11/28 16:19:14;;;;;;;2.11;1.60;;;;;;;20.02;49.37;98528.89;;;;-56
2021/11/28 16:22:13;;;;;;;2.07;1.71;;;;;;;20.05;49.47;98532.73;;;;-51
2021/11/28 16:25:14;;;;;;;1.86;1.62;;;;;;;20.07;49.45;98535.05;;;;-61
2021/11/28 16:28:13;;;;;;;3.75;1.78;;;;;;;20.09;49.33;98538.23;;;;-61
2021/11/28 16:31:13;;;;;;;2.55;1.60;;;;;;;20.09;49.48;98536.66;;;;-60
2021/11/28 16:34:13;;;;;;;1.60;1.50;;;;;;;20.13;49.36;98543.48;;;;-51
2021/11/28 16:37:13;;;;;;;2.71;1.60;;;;;;;20.15;49.37;98544.72;;;;-53
2021/11/28 16:40:13;;;;;;;1.99;1.68;;;;;;;20.15;49.34;98545.47;;;;-51
2021/11/28 16:43:14;;;;;;;1.63;1.53;;;;;;;20.15;49.30;98547.73;;;;-54
2021/11/28 16:46:13;;;;;;;2.13;1.60;;;;;;;20.15;49.21;98547.48;;;;-54
2021/11/28 16:49:13;;;;;;;1.74;1.60;;;;;;;20.14;49.32;98551.89;;;;-52
2021/11/28 16:52:13;;;;;;;1.69;1.59;;;;;;;20.15;49.30;98555.95;;;;-58
2021/11/28 16:55:14;;;;;;;1.73;1.62;;;;;;;20.15;49.22;98564.17;;;;-53
2021/11/28 16:58:13;;;;;;;4.23;1.61;;;;;;;20.17;49.58;98564.93;;;;-62